createdAt,value
2023-05-09T00:02:19.603Z,88.90
2023-05-09T00:07:17.834Z,90.30
2023-05-09T00:12:16.082Z,90.50
2023-05-09T00:17:15.868Z,91.30
2023-05-09T00:22:14.234Z,91.70
2023-05-09T00:27:12.433Z,92.20
2023-05-09T00:32:11.638Z,92.90
2023-05-09T00:37:11.380Z,93.30
2023-05-09T00:42:09.442Z,93.30
2023-05-09T00:47:08.210Z,93.10
2023-05-09T00:52:06.794Z,94.10
2023-05-09T00:57:06.627Z,94.20
2023-05-09T01:02:04.820Z,94.50
2023-05-09T01:07:07.506Z,94.70
2023-05-09T01:12:15.154Z,94.60
2023-05-09T01:17:19.832Z,94.80
2023-05-09T01:22:19.680Z,95.00
2023-05-09T01:27:34.169Z,95.10
2023-05-09T01:32:37.035Z,95.40
2023-05-09T01:37:37.138Z,95.50
2023-05-09T01:42:42.605Z,95.40
2023-05-09T01:47:43.741Z,95.50
2023-05-09T01:52:44.099Z,95.70
2023-05-09T01:57:44.278Z,95.60
2023-05-09T02:02:45.166Z,95.80
2023-05-09T02:07:44.048Z,95.90
2023-05-09T02:12:42.329Z,96.10
2023-05-09T02:17:40.786Z,96.00
2023-05-09T02:22:42.394Z,96.30
2023-05-09T02:27:41.545Z,96.70
2023-05-09T02:32:41.748Z,96.00
2023-05-09T02:37:41.757Z,96.10
2023-05-09T02:42:40.056Z,95.90
2023-05-09T02:47:38.400Z,96.00
2023-05-09T02:52:36.664Z,96.00
2023-05-09T03:02:52.548Z,96.10
2023-05-09T03:07:51.509Z,96.10
2023-05-09T03:12:51.341Z,96.30
2023-05-09T03:17:49.802Z,96.20
2023-05-09T03:22:48.647Z,96.30
2023-05-09T03:27:47.258Z,96.40
2023-05-09T03:32:48.463Z,96.30
2023-05-09T03:37:46.793Z,96.50
2023-05-09T03:42:44.943Z,96.20
2023-05-09T03:47:43.652Z,96.30
2023-05-09T03:52:44.416Z,96.50
2023-05-09T03:57:45.030Z,96.80
2023-05-09T04:02:43.544Z,96.80
2023-05-09T04:07:52.268Z,96.80
2023-05-09T04:12:50.883Z,96.90
2023-05-09T04:17:49.299Z,97.20
2023-05-09T04:22:47.766Z,97.80
2023-05-09T04:27:49.007Z,97.80
2023-05-09T04:32:47.463Z,98.10
2023-05-09T04:37:46.258Z,98.20
2023-05-09T04:42:45.209Z,98.40
2023-05-09T04:47:44.964Z,98.40
2023-05-09T04:52:43.414Z,98.50
2023-05-09T04:57:41.528Z,98.80
2023-05-09T05:02:40.061Z,99.20
2023-05-09T05:07:39.858Z,98.70
2023-05-09T05:12:38.199Z,98.90
2023-05-09T05:17:39.665Z,98.80
2023-05-09T05:22:41.124Z,99.00
2023-05-09T05:27:39.232Z,98.80
2023-05-09T05:32:39.900Z,98.50
2023-05-09T05:37:40.445Z,98.40
2023-05-09T05:42:39.397Z,98.20
2023-05-09T05:47:38.744Z,98.20
2023-05-09T05:52:37.741Z,97.70
2023-05-09T05:57:37.842Z,97.30
2023-05-09T06:02:38.247Z,96.80
2023-05-09T06:07:36.623Z,97.10
2023-05-09T06:12:35.071Z,96.70
2023-05-09T06:17:34.922Z,96.20
2023-05-09T06:22:33.191Z,96.20
2023-05-09T06:27:31.396Z,96.10
2023-05-09T06:32:29.455Z,96.00
2023-05-09T06:37:29.229Z,96.40
2023-05-09T06:42:28.650Z,95.20
2023-05-09T06:47:26.870Z,95.20
2023-05-09T06:52:25.129Z,95.50
2023-05-09T06:57:24.545Z,94.10
2023-05-09T07:02:22.581Z,94.90
2023-05-09T07:07:20.872Z,93.90
2023-05-09T07:12:19.098Z,94.10
2023-05-09T07:17:23.625Z,93.40
2023-05-09T07:22:22.698Z,92.50
2023-05-09T07:27:20.985Z,91.90
2023-05-09T07:32:20.668Z,92.90
2023-05-09T07:37:18.860Z,92.30
2023-05-09T07:42:17.201Z,92.90
2023-05-09T07:47:15.401Z,92.90
2023-05-09T07:52:14.946Z,91.90
2023-05-09T07:57:13.172Z,90.80
2023-05-09T08:02:11.434Z,90.30
2023-05-09T08:07:09.698Z,90.00
2023-05-09T08:12:09.776Z,88.90
2023-05-09T08:17:08.034Z,89.50
2023-05-09T08:27:23.479Z,86.30
2023-05-09T08:32:21.702Z,88.90
2023-05-09T08:37:19.915Z,87.00
2023-05-09T08:42:24.775Z,81.70
2023-05-09T08:47:26.295Z,81.90
2023-05-09T08:52:24.716Z,81.90
2023-05-09T08:57:23.187Z,79.00
2023-05-09T09:02:21.657Z,76.80
2023-05-09T09:07:21.855Z,82.90
2023-05-09T09:12:23.060Z,73.40
2023-05-09T09:17:24.618Z,72.90
2023-05-09T09:22:25.051Z,66.80
2023-05-09T09:27:23.282Z,69.30
2023-05-09T09:32:33.468Z,65.30
2023-05-09T09:37:35.290Z,58.60
2023-05-09T09:42:42.951Z,57.40
2023-05-09T09:47:41.813Z,56.10
2023-05-09T09:52:45.872Z,54.90
2023-05-09T09:57:45.966Z,56.20
2023-05-09T10:02:51.880Z,57.70
2023-05-09T10:07:56.977Z,56.20
2023-05-09T10:12:58.348Z,56.30
2023-05-09T10:17:59.200Z,56.10
2023-05-09T10:23:02.724Z,54.90
2023-05-09T10:28:02.547Z,55.10
2023-05-09T10:33:05.095Z,57.00
2023-05-09T10:38:05.547Z,55.60
2023-05-09T10:43:03.553Z,54.00
2023-05-09T10:48:04.187Z,53.30
2023-05-09T10:53:14.479Z,54.00
2023-05-09T10:58:23.936Z,52.00
2023-05-09T11:03:22.172Z,53.80
2023-05-09T11:08:23.849Z,52.90
2023-05-09T11:13:24.921Z,52.60
2023-05-09T11:18:23.349Z,53.80
2023-05-09T11:23:26.608Z,51.80
2023-05-09T11:28:29.415Z,51.70
2023-05-09T11:33:30.402Z,51.40
2023-05-09T11:38:42.802Z,51.90
2023-05-09T11:43:41.497Z,50.00
2023-05-09T11:48:40.714Z,53.50
2023-05-09T11:53:47.003Z,52.10
2023-05-09T11:58:46.705Z,53.40
2023-05-09T12:03:45.764Z,49.30
2023-05-09T12:08:45.834Z,50.70
2023-05-09T12:13:48.545Z,51.50
2023-05-09T12:18:48.160Z,49.30
2023-05-09T12:23:50.940Z,50.80
2023-05-09T12:28:51.170Z,49.50
2023-05-09T12:33:49.685Z,49.10
2023-05-09T12:38:58.768Z,52.80
2023-05-09T12:43:57.182Z,51.60
2023-05-09T12:48:55.753Z,51.00
2023-05-09T12:53:54.064Z,51.50
2023-05-09T12:58:55.174Z,50.60
2023-05-09T13:03:54.151Z,50.60
2023-05-09T13:09:01.339Z,50.00
2023-05-09T13:14:03.329Z,50.60
2023-05-09T13:19:01.575Z,51.00
2023-05-09T13:23:59.820Z,51.10
2023-05-09T13:28:58.106Z,48.40
2023-05-09T13:33:57.674Z,49.00
2023-05-09T13:38:55.896Z,49.30
2023-05-09T13:43:54.073Z,50.00
2023-05-09T13:48:52.289Z,49.00
2023-05-09T13:53:51.831Z,50.70
2023-05-09T13:58:50.010Z,49.40
2023-05-09T14:03:49.285Z,49.70
2023-05-09T14:08:47.591Z,49.10
2023-05-09T14:13:47.340Z,49.40
2023-05-09T14:18:45.600Z,49.20
2023-05-09T14:23:43.854Z,49.60
2023-05-09T14:28:42.139Z,47.90
2023-05-09T14:33:41.505Z,47.60
2023-05-09T14:38:40.631Z,47.90
2023-05-09T14:43:38.651Z,47.40
2023-05-09T14:48:36.877Z,47.90
2023-05-09T14:53:40.829Z,48.40
2023-05-09T14:58:39.620Z,48.10
2023-05-09T15:03:39.662Z,48.00
2023-05-09T15:08:39.577Z,50.70
2023-05-09T15:13:38.530Z,47.50
2023-05-09T15:18:36.743Z,47.20
2023-05-09T15:23:36.022Z,48.40
2023-05-09T15:28:35.602Z,47.80
2023-05-09T15:33:34.063Z,47.50
2023-05-09T15:38:32.140Z,48.80
2023-05-09T15:43:30.383Z,47.50
2023-05-09T15:48:29.990Z,47.60
2023-05-09T15:53:28.764Z,48.10
2023-05-09T15:58:27.218Z,48.30
2023-05-09T16:03:25.885Z,47.70
2023-05-09T16:08:25.765Z,48.40
2023-05-09T16:13:24.071Z,49.90
2023-05-09T16:18:22.443Z,48.80
2023-05-09T16:23:21.002Z,49.50
2023-05-09T16:28:23.582Z,49.60
2023-05-09T16:33:21.936Z,49.00
2023-05-09T16:38:20.420Z,49.40
2023-05-09T16:43:20.625Z,49.40
2023-05-09T16:48:19.572Z,50.00
2023-05-09T16:53:19.788Z,50.20
2023-05-09T16:58:18.302Z,49.70
2023-05-09T17:03:17.885Z,50.30
2023-05-09T17:08:15.957Z,51.70
2023-05-09T17:13:14.491Z,50.90
2023-05-09T17:18:17.000Z,51.10
2023-05-09T17:23:18.970Z,51.80
2023-05-09T17:28:17.221Z,52.40
2023-05-09T17:33:15.393Z,52.50
2023-05-09T17:38:13.588Z,53.00
2023-05-09T17:43:14.185Z,53.30
2023-05-09T17:48:13.364Z,54.00
2023-05-09T17:53:11.898Z,54.20
2023-05-09T17:58:10.511Z,54.60
2023-05-09T18:03:10.221Z,55.80
2023-05-09T18:08:08.397Z,55.30
2023-05-09T18:13:06.855Z,55.60
2023-05-09T18:18:05.771Z,55.90
2023-05-09T18:23:06.162Z,56.00
2023-05-09T18:28:04.294Z,56.10
2023-05-09T18:33:02.727Z,56.10
2023-05-09T18:38:01.036Z,56.00
2023-05-09T18:43:00.650Z,56.40
2023-05-09T18:47:59.117Z,56.40
2023-05-09T18:52:57.368Z,56.40
2023-05-09T18:57:55.397Z,56.60
2023-05-09T19:02:55.263Z,56.90
2023-05-09T19:07:54.259Z,56.90
2023-05-09T19:12:52.626Z,56.50
2023-05-09T19:17:51.266Z,56.80
2023-05-09T19:22:51.519Z,56.70
2023-05-09T19:27:49.520Z,56.80
2023-05-09T19:32:47.914Z,57.10
2023-05-09T19:37:46.333Z,57.20
2023-05-09T19:42:45.854Z,57.70
2023-05-09T19:47:44.260Z,57.70
2023-05-09T19:52:42.595Z,57.60
2023-05-09T19:57:40.923Z,58.20
2023-05-09T20:02:40.682Z,58.00
2023-05-09T20:07:39.180Z,58.30
2023-05-09T20:12:37.826Z,58.70
2023-05-09T20:17:36.089Z,58.80
2023-05-09T20:22:35.821Z,58.90
2023-05-09T20:27:35.534Z,59.50
2023-05-09T20:32:33.731Z,59.20
2023-05-09T20:37:31.886Z,59.70
2023-05-09T20:42:31.535Z,60.00
2023-05-09T20:47:29.736Z,60.60
2023-05-09T20:52:28.169Z,60.80
2023-05-09T20:57:26.216Z,62.00
2023-05-09T21:02:26.014Z,62.20
2023-05-09T21:07:24.121Z,62.80
2023-05-09T21:12:22.473Z,63.60
2023-05-09T21:17:20.968Z,64.00
2023-05-09T21:22:20.615Z,64.20
2023-05-09T21:27:18.684Z,65.10
2023-05-09T21:32:17.428Z,65.30
2023-05-09T21:37:15.633Z,66.40
2023-05-09T21:42:15.228Z,66.90
2023-05-09T21:47:13.297Z,67.20
2023-05-09T21:52:11.638Z,67.80
2023-05-09T21:57:09.825Z,68.80
2023-05-09T22:02:09.576Z,68.60
2023-05-09T22:07:08.053Z,69.30
2023-05-09T22:12:06.532Z,69.20
2023-05-09T22:17:04.878Z,70.40
2023-05-09T22:22:04.246Z,70.60
2023-05-09T22:27:02.715Z,71.10
2023-05-09T22:32:01.015Z,71.30
2023-05-09T22:36:59.278Z,71.90
2023-05-09T22:41:58.663Z,73.60
2023-05-09T22:46:56.845Z,73.30
2023-05-09T22:51:55.076Z,73.90
2023-05-09T22:56:53.107Z,75.00
2023-05-09T23:01:53.616Z,75.40
2023-05-09T23:06:52.133Z,75.90
2023-05-09T23:11:50.359Z,76.30
2023-05-09T23:22:06.090Z,78.80
2023-05-09T23:27:04.444Z,78.00
2023-05-09T23:32:02.926Z,79.20
2023-05-09T23:37:01.143Z,80.10
2023-05-09T23:42:00.819Z,80.80
2023-05-09T23:46:59.134Z,81.80
2023-05-09T23:51:57.233Z,81.90
2023-05-09T23:56:56.287Z,82.00
